OMD211 KPHL-KMZJ
Flight info
| Callsign | OMD211 |
|---|---|
| Flight time | N/A |
| Altitude | 38000 |
| Route | MXE PENSY FLIRT J6 MRB/N0464F380 J6 HVQ Q68 SOPIE LIT MAMEE SPS J166 TCS KATMN |
| Aircraft | A321/M-SDE3FGHIRWY/LB1 |
Departure
| Time | N/A |
|---|---|
| Airport | Philadelphia International Airport (KPHL) |
Arrival
| Time | 2026-05-08 16:10 |
|---|---|
| Airport | Pinal Airpark (KMZJ) |
| Time | Latitude | Longitude | Altitude | Speed | Heading |
|---|---|---|---|---|---|
| 2026-05-08 14:31 | 33.96387 | -98.87210 | 37997 ft | 386 kts | 261° |
| 2026-05-08 14:31 | 33.96113 | -98.90435 | 37991 ft | 387 kts | 261° |
| 2026-05-08 14:32 | 33.95288 | -99.00105 | 37988 ft | 387 kts | 261° |
| 2026-05-08 14:32 | 33.94727 | -99.06553 | 37988 ft | 387 kts | 261° |
| 2026-05-08 14:33 | 33.94166 | -99.13006 | 37977 ft | 387 kts | 261° |
| 2026-05-08 14:33 | 33.93601 | -99.19464 | 37978 ft | 388 kts | 261° |
| 2026-05-08 14:34 | 33.93031 | -99.25916 | 37977 ft | 388 kts | 261° |
| 2026-05-08 14:34 | 33.92457 | -99.32388 | 37978 ft | 388 kts | 261° |
| 2026-05-08 14:35 | 33.91887 | -99.38858 | 37978 ft | 388 kts | 261° |
| 2026-05-08 14:35 | 33.91306 | -99.45317 | 37977 ft | 388 kts | 261° |
| 2026-05-08 14:36 | 33.90717 | -99.51778 | 37972 ft | 388 kts | 261° |
| 2026-05-08 14:36 | 33.90125 | -99.58245 | 37966 ft | 389 kts | 261° |
| 2026-05-08 14:37 | 33.89538 | -99.64708 | 37971 ft | 389 kts | 261° |
| 2026-05-08 14:37 | 33.88946 | -99.71176 | 37966 ft | 389 kts | 261° |
| 2026-05-08 14:38 | 33.88349 | -99.77642 | 37970 ft | 389 kts | 261° |
| 2026-05-08 14:38 | 33.87754 | -99.84114 | 37969 ft | 389 kts | 261° |
| 2026-05-08 14:39 | 33.87152 | -99.90582 | 37963 ft | 389 kts | 261° |
| 2026-05-08 14:39 | 33.86540 | -99.97052 | 37964 ft | 390 kts | 261° |
| 2026-05-08 14:40 | 33.85935 | -100.03495 | 37960 ft | 390 kts | 261° |
| 2026-05-08 14:40 | 33.85320 | -100.09971 | 37963 ft | 390 kts | 261° |
| 2026-05-08 14:41 | 33.84701 | -100.16451 | 37961 ft | 390 kts | 261° |
| 2026-05-08 14:41 | 33.84081 | -100.22934 | 37961 ft | 390 kts | 261° |
| 2026-05-08 14:42 | 33.83453 | -100.29413 | 37954 ft | 390 kts | 261° |
| 2026-05-08 14:42 | 33.82819 | -100.35896 | 37955 ft | 390 kts | 261° |
| 2026-05-08 14:43 | 33.82182 | -100.42394 | 37958 ft | 391 kts | 261° |
| 2026-05-08 14:43 | 33.81542 | -100.48884 | 37953 ft | 391 kts | 261° |
| 2026-05-08 14:44 | 33.80903 | -100.55369 | 37949 ft | 391 kts | 260° |
| 2026-05-08 14:44 | 33.80264 | -100.61854 | 37942 ft | 391 kts | 261° |
| 2026-05-08 14:45 | 33.79615 | -100.68347 | 37945 ft | 391 kts | 260° |
| 2026-05-08 14:45 | 33.78963 | -100.74803 | 37941 ft | 392 kts | 260° |
| 2026-05-08 14:46 | 33.78303 | -100.81299 | 37940 ft | 392 kts | 260° |
| 2026-05-08 14:46 | 33.77649 | -100.87805 | 37939 ft | 392 kts | 260° |
| 2026-05-08 14:47 | 33.76990 | -100.94314 | 37940 ft | 392 kts | 260° |
| 2026-05-08 14:47 | 33.76325 | -101.00816 | 37942 ft | 392 kts | 260° |
| 2026-05-08 14:48 | 33.75649 | -101.07319 | 37944 ft | 392 kts | 260° |
| 2026-05-08 14:48 | 33.74972 | -101.13815 | 37942 ft | 392 kts | 260° |
| 2026-05-08 14:49 | 33.74296 | -101.20314 | 37942 ft | 392 kts | 260° |
| 2026-05-08 14:49 | 33.73736 | -101.25716 | 37942 ft | 392 kts | 260° |
| 2026-05-08 14:50 | 33.73057 | -101.32218 | 37951 ft | 392 kts | 260° |
| 2026-05-08 14:50 | 33.72367 | -101.38724 | 37948 ft | 393 kts | 260° |
| 2026-05-08 14:51 | 33.71668 | -101.45237 | 37966 ft | 393 kts | 260° |
| 2026-05-08 14:51 | 33.70979 | -101.51750 | 37985 ft | 393 kts | 260° |
| 2026-05-08 14:52 | 33.69938 | -101.61478 | 38017 ft | 393 kts | 260° |
| 2026-05-08 14:53 | 33.69231 | -101.67989 | 38046 ft | 393 kts | 260° |
| 2026-05-08 14:53 | 33.68522 | -101.74495 | 38057 ft | 393 kts | 260° |
| 2026-05-08 14:54 | 33.67812 | -101.81016 | 38056 ft | 394 kts | 260° |
| 2026-05-08 14:54 | 33.67092 | -101.87543 | 38060 ft | 394 kts | 260° |
| 2026-05-08 14:55 | 33.66375 | -101.94076 | 38052 ft | 395 kts | 260° |
| 2026-05-08 14:55 | 33.65654 | -102.00603 | 38028 ft | 394 kts | 260° |
| 2026-05-08 14:56 | 33.64929 | -102.07127 | 38000 ft | 395 kts | 260° |
| 2026-05-08 14:56 | 33.64196 | -102.13655 | 37973 ft | 395 kts | 260° |
| 2026-05-08 14:57 | 33.63457 | -102.20185 | 38041 ft | 395 kts | 260° |
| 2026-05-08 14:57 | 33.62719 | -102.26724 | 38068 ft | 395 kts | 260° |
| 2026-05-08 14:58 | 33.61982 | -102.33217 | 38082 ft | 395 kts | 259° |
| 2026-05-08 14:58 | 33.61229 | -102.39796 | 38080 ft | 396 kts | 259° |
| 2026-05-08 14:59 | 33.60486 | -102.46300 | 38080 ft | 397 kts | 260° |
| 2026-05-08 14:59 | 33.59351 | -102.56152 | 38037 ft | 398 kts | 260° |
| 2026-05-08 15:00 | 33.58592 | -102.62739 | 38006 ft | 399 kts | 260° |
| 2026-05-08 15:00 | 33.57825 | -102.69329 | 37980 ft | 399 kts | 259° |
| 2026-05-08 15:01 | 33.57054 | -102.75926 | 37952 ft | 399 kts | 259° |
| 2026-05-08 15:01 | 33.56272 | -102.82530 | 37915 ft | 401 kts | 260° |
| 2026-05-08 15:02 | 33.55485 | -102.89151 | 37911 ft | 402 kts | 260° |
| 2026-05-08 15:02 | 33.54701 | -102.95801 | 37915 ft | 403 kts | 260° |
| 2026-05-08 15:03 | 33.53904 | -103.02466 | 37918 ft | 403 kts | 259° |
| 2026-05-08 15:03 | 33.53111 | -103.09077 | 37920 ft | 403 kts | 259° |
| 2026-05-08 15:04 | 33.52308 | -103.15739 | 37910 ft | 404 kts | 260° |
| 2026-05-08 15:04 | 33.51502 | -103.22420 | 37893 ft | 406 kts | 260° |
| 2026-05-08 15:05 | 33.50689 | -103.29127 | 37896 ft | 408 kts | 260° |
| 2026-05-08 15:05 | 33.49864 | -103.35864 | 37907 ft | 409 kts | 260° |
| 2026-05-08 15:06 | 33.49032 | -103.42613 | 37913 ft | 410 kts | 260° |
| 2026-05-08 15:06 | 33.48201 | -103.49365 | 37920 ft | 410 kts | 259° |
| 2026-05-08 15:07 | 33.47368 | -103.56088 | 37908 ft | 412 kts | 260° |
| 2026-05-08 15:07 | 33.46525 | -103.62888 | 37906 ft | 414 kts | 260° |
| 2026-05-08 15:08 | 33.45810 | -103.68596 | 37912 ft | 414 kts | 260° |
| 2026-05-08 15:08 | 33.44805 | -103.76535 | 37919 ft | 415 kts | 260° |
| 2026-05-08 15:09 | 33.43951 | -103.83371 | 37921 ft | 415 kts | 260° |
| 2026-05-08 15:09 | 33.43095 | -103.90224 | 37907 ft | 417 kts | 260° |
| 2026-05-08 15:10 | 33.42216 | -103.97107 | 37894 ft | 419 kts | 260° |
| 2026-05-08 15:10 | 33.41331 | -104.04016 | 37895 ft | 420 kts | 260° |
| 2026-05-08 15:11 | 33.40440 | -104.10940 | 37892 ft | 421 kts | 260° |
| 2026-05-08 15:11 | 33.39549 | -104.17860 | 37936 ft | 420 kts | 259° |
| 2026-05-08 15:12 | 33.38653 | -104.24768 | 37971 ft | 421 kts | 259° |
| 2026-05-08 15:12 | 33.37749 | -104.31687 | 37998 ft | 422 kts | 259° |
| 2026-05-08 15:13 | 33.36846 | -104.38635 | 38030 ft | 423 kts | 259° |
| 2026-05-08 15:13 | 33.35931 | -104.45594 | 38064 ft | 424 kts | 259° |
| 2026-05-08 15:14 | 33.35010 | -104.52555 | 38070 ft | 424 kts | 259° |
| 2026-05-08 15:14 | 33.34085 | -104.59517 | 38071 ft | 424 kts | 259° |
| 2026-05-08 15:15 | 33.33692 | -104.66570 | 38050 ft | 426 kts | 267° |
| 2026-05-08 15:15 | 33.33625 | -104.73668 | 38016 ft | 427 kts | 268° |
| 2026-05-08 15:16 | 33.33544 | -104.80735 | 37968 ft | 428 kts | 268° |
| 2026-05-08 15:16 | 33.33458 | -104.87867 | 37930 ft | 429 kts | 268° |
| 2026-05-08 15:17 | 33.33372 | -104.95021 | 37890 ft | 431 kts | 268° |
| 2026-05-08 15:17 | 33.33285 | -105.02195 | 37874 ft | 432 kts | 268° |
| 2026-05-08 15:18 | 33.33184 | -105.09389 | 37882 ft | 433 kts | 268° |
| 2026-05-08 15:18 | 33.33075 | -105.16590 | 37923 ft | 434 kts | 268° |
| 2026-05-08 15:19 | 33.32967 | -105.23816 | 38006 ft | 434 kts | 268° |
| 2026-05-08 15:19 | 33.32856 | -105.30983 | 38068 ft | 435 kts | 268° |
| 2026-05-08 15:20 | 33.32741 | -105.38215 | 38119 ft | 436 kts | 268° |
| 2026-05-08 15:20 | 33.32621 | -105.45473 | 38157 ft | 437 kts | 268° |
| 2026-05-08 15:21 | 33.32501 | -105.52736 | 38171 ft | 437 kts | 268° |
| 2026-05-08 15:21 | 33.32377 | -105.60011 | 38161 ft | 437 kts | 268° |
| 2026-05-08 15:22 | 33.32248 | -105.67284 | 38129 ft | 438 kts | 268° |
| 2026-05-08 15:22 | 33.32107 | -105.74577 | 38079 ft | 439 kts | 268° |
| 2026-05-08 15:23 | 33.31964 | -105.81893 | 38029 ft | 440 kts | 268° |
| 2026-05-08 15:23 | 33.31821 | -105.89207 | 37979 ft | 441 kts | 268° |
| 2026-05-08 15:24 | 33.31673 | -105.96534 | 37948 ft | 441 kts | 268° |
| 2026-05-08 15:24 | 33.31518 | -106.03829 | 37940 ft | 442 kts | 269° |
| 2026-05-08 15:25 | 33.31361 | -106.11194 | 37916 ft | 444 kts | 269° |
| 2026-05-08 15:25 | 33.31195 | -106.18579 | 37919 ft | 445 kts | 269° |
| 2026-05-08 15:26 | 33.31025 | -106.25981 | 37920 ft | 446 kts | 269° |
| 2026-05-08 15:26 | 33.30851 | -106.33388 | 37927 ft | 446 kts | 269° |
| 2026-05-08 15:27 | 33.30677 | -106.40813 | 37915 ft | 447 kts | 269° |
| 2026-05-08 15:27 | 33.30491 | -106.48260 | 37913 ft | 449 kts | 269° |
| 2026-05-08 15:28 | 33.30300 | -106.55725 | 37922 ft | 450 kts | 269° |
| 2026-05-08 15:28 | 33.30107 | -106.63209 | 37927 ft | 450 kts | 269° |
| 2026-05-08 15:29 | 33.29907 | -106.70698 | 37920 ft | 451 kts | 270° |
| 2026-05-08 15:29 | 33.29702 | -106.78195 | 37908 ft | 452 kts | 270° |
| 2026-05-08 15:30 | 33.29493 | -106.85715 | 37908 ft | 453 kts | 270° |
| 2026-05-08 15:30 | 33.29290 | -106.93254 | 37966 ft | 454 kts | 270° |
| 2026-05-08 15:31 | 33.29077 | -107.00807 | 38022 ft | 455 kts | 270° |
| 2026-05-08 15:31 | 33.28851 | -107.08366 | 38077 ft | 455 kts | 270° |
| 2026-05-08 15:32 | 33.28619 | -107.15923 | 38130 ft | 455 kts | 270° |
| 2026-05-08 15:32 | 33.28380 | -107.23479 | 38145 ft | 455 kts | 270° |
| 2026-05-08 15:33 | 33.27738 | -107.31023 | 38147 ft | 459 kts | 261° |
| 2026-05-08 15:33 | 33.26439 | -107.38489 | 38137 ft | 459 kts | 261° |
| 2026-05-08 15:34 | 33.25135 | -107.45962 | 38075 ft | 460 kts | 261° |
| 2026-05-08 15:34 | 33.23827 | -107.53448 | 38032 ft | 460 kts | 261° |
| 2026-05-08 15:35 | 33.22522 | -107.60882 | 37997 ft | 461 kts | 261° |
| 2026-05-08 15:35 | 33.21202 | -107.68373 | 37953 ft | 461 kts | 261° |
| 2026-05-08 15:36 | 33.20099 | -107.74607 | 37947 ft | 461 kts | 261° |
| 2026-05-08 15:36 | 33.18545 | -107.83376 | 37944 ft | 463 kts | 261° |
| 2026-05-08 15:37 | 33.17433 | -107.89624 | 37957 ft | 463 kts | 261° |
| 2026-05-08 15:37 | 33.16095 | -107.97150 | 37962 ft | 464 kts | 261° |
| 2026-05-08 15:38 | 33.14751 | -108.04679 | 37970 ft | 464 kts | 261° |
| 2026-05-08 15:38 | 33.13392 | -108.12207 | 37974 ft | 464 kts | 261° |
| 2026-05-08 15:39 | 33.12026 | -108.19735 | 37973 ft | 464 kts | 261° |
| 2026-05-08 15:39 | 33.10666 | -108.27263 | 37974 ft | 464 kts | 261° |
| 2026-05-08 15:40 | 33.09299 | -108.34800 | 37977 ft | 464 kts | 261° |
| 2026-05-08 15:40 | 33.07926 | -108.42322 | 37979 ft | 464 kts | 261° |
| 2026-05-08 15:41 | 33.06544 | -108.49855 | 37961 ft | 465 kts | 261° |
| 2026-05-08 15:41 | 33.05159 | -108.57379 | 37958 ft | 465 kts | 261° |
| 2026-05-08 15:42 | 33.03775 | -108.64877 | 37962 ft | 466 kts | 261° |
| 2026-05-08 15:42 | 33.02376 | -108.72418 | 37965 ft | 466 kts | 261° |
| 2026-05-08 15:43 | 33.00984 | -108.79961 | 37946 ft | 466 kts | 261° |
| 2026-05-08 15:43 | 32.99585 | -108.87499 | 37962 ft | 466 kts | 261° |
| 2026-05-08 15:44 | 32.98169 | -108.95033 | 37962 ft | 466 kts | 261° |
| 2026-05-08 15:44 | 32.96749 | -109.02555 | 37902 ft | 466 kts | 261° |
| 2026-05-08 15:45 | 32.96039 | -109.06318 | 37619 ft | 465 kts | 261° |
| 2026-05-08 15:45 | 32.95330 | -109.10079 | 37350 ft | 465 kts | 261° |
| 2026-05-08 15:45 | 32.94623 | -109.13839 | 37057 ft | 466 kts | 261° |
| 2026-05-08 15:45 | 32.93912 | -109.17611 | 36808 ft | 467 kts | 261° |
| 2026-05-08 15:46 | 32.93197 | -109.21382 | 36561 ft | 469 kts | 261° |
| 2026-05-08 15:46 | 32.92477 | -109.25174 | 36310 ft | 470 kts | 261° |
| 2026-05-08 15:46 | 32.91755 | -109.28963 | 35903 ft | 469 kts | 261° |
| 2026-05-08 15:46 | 32.91027 | -109.32758 | 35357 ft | 469 kts | 262° |
| 2026-05-08 15:47 | 32.90300 | -109.36554 | 35130 ft | 473 kts | 262° |
| 2026-05-08 15:47 | 32.89568 | -109.40385 | 34396 ft | 479 kts | 262° |
| 2026-05-08 15:47 | 32.88825 | -109.44277 | 33442 ft | 484 kts | 262° |
| 2026-05-08 15:47 | 32.88086 | -109.48144 | 32412 ft | 487 kts | 262° |
| 2026-05-08 15:48 | 32.86573 | -109.56076 | 30201 ft | 495 kts | 261° |
| 2026-05-08 15:48 | 32.85800 | -109.60092 | 28778 ft | 497 kts | 261° |
| 2026-05-08 15:48 | 32.85023 | -109.64084 | 27456 ft | 495 kts | 261° |
| 2026-05-08 15:49 | 32.84241 | -109.68082 | 26148 ft | 498 kts | 261° |
| 2026-05-08 15:49 | 32.83456 | -109.72103 | 24753 ft | 500 kts | 261° |
| 2026-05-08 15:49 | 32.82674 | -109.76093 | 23542 ft | 489 kts | 260° |
| 2026-05-08 15:49 | 32.81911 | -109.79951 | 22185 ft | 468 kts | 260° |
| 2026-05-08 15:50 | 32.81185 | -109.83625 | 20952 ft | 447 kts | 260° |
| 2026-05-08 15:50 | 32.80490 | -109.87167 | 19811 ft | 436 kts | 260° |
| 2026-05-08 15:50 | 32.79811 | -109.90668 | 18758 ft | 432 kts | 260° |
| 2026-05-08 15:50 | 32.79142 | -109.94129 | 17749 ft | 430 kts | 259° |
| 2026-05-08 15:51 | 32.78468 | -109.97602 | 16675 ft | 432 kts | 259° |
| 2026-05-08 15:51 | 32.77787 | -110.01076 | 15684 ft | 432 kts | 259° |
| 2026-05-08 15:51 | 32.77103 | -110.04557 | 14700 ft | 433 kts | 259° |
| 2026-05-08 15:51 | 32.76417 | -110.08040 | 13776 ft | 433 kts | 259° |
| 2026-05-08 15:52 | 32.75728 | -110.11523 | 12801 ft | 432 kts | 259° |
| 2026-05-08 15:52 | 32.75043 | -110.14970 | 12180 ft | 422 kts | 259° |
| 2026-05-08 15:52 | 32.74372 | -110.18333 | 11969 ft | 412 kts | 259° |
| 2026-05-08 15:52 | 32.73729 | -110.21557 | 11780 ft | 390 kts | 259° |
| 2026-05-08 15:53 | 32.73121 | -110.24612 | 11558 ft | 371 kts | 259° |
| 2026-05-08 15:53 | 32.72540 | -110.27527 | 11323 ft | 352 kts | 259° |
| 2026-05-08 15:53 | 32.71994 | -110.30254 | 11285 ft | 327 kts | 260° |
| 2026-05-08 15:53 | 32.71483 | -110.32807 | 11036 ft | 309 kts | 260° |
| 2026-05-08 15:54 | 32.70992 | -110.35268 | 10768 ft | 304 kts | 260° |
| 2026-05-08 15:54 | 32.70509 | -110.37698 | 10485 ft | 301 kts | 261° |
| 2026-05-08 15:54 | 32.70030 | -110.40111 | 10207 ft | 300 kts | 261° |
| 2026-05-08 15:54 | 32.69556 | -110.42526 | 9933 ft | 298 kts | 261° |
| 2026-05-08 15:55 | 32.69090 | -110.44909 | 9623 ft | 295 kts | 261° |
| 2026-05-08 15:55 | 32.68193 | -110.49624 | 8963 ft | 288 kts | 261° |
| 2026-05-08 15:55 | 32.67758 | -110.51934 | 8636 ft | 286 kts | 260° |
| 2026-05-08 15:56 | 32.67331 | -110.54231 | 8319 ft | 284 kts | 261° |
| 2026-05-08 15:56 | 32.66914 | -110.56506 | 8002 ft | 281 kts | 261° |
| 2026-05-08 15:56 | 32.66507 | -110.58768 | 7685 ft | 278 kts | 261° |
| 2026-05-08 15:56 | 32.66099 | -110.61006 | 7386 ft | 276 kts | 261° |
| 2026-05-08 15:57 | 32.65693 | -110.63221 | 7148 ft | 274 kts | 261° |
| 2026-05-08 15:57 | 32.65304 | -110.65427 | 6913 ft | 273 kts | 261° |
| 2026-05-08 15:57 | 32.64930 | -110.67626 | 6678 ft | 272 kts | 261° |
| 2026-05-08 15:57 | 32.64574 | -110.69826 | 6535 ft | 272 kts | 261° |
| 2026-05-08 15:58 | 32.64218 | -110.72025 | 6418 ft | 271 kts | 261° |
| 2026-05-08 15:58 | 32.63863 | -110.74215 | 6350 ft | 269 kts | 261° |
| 2026-05-08 15:58 | 32.63507 | -110.76393 | 6301 ft | 270 kts | 261° |
| 2026-05-08 15:58 | 32.63149 | -110.78586 | 6248 ft | 271 kts | 261° |
| 2026-05-08 15:59 | 32.62785 | -110.80785 | 6198 ft | 271 kts | 261° |
| 2026-05-08 15:59 | 32.62413 | -110.82988 | 6109 ft | 272 kts | 261° |
| 2026-05-08 15:59 | 32.62034 | -110.85177 | 5987 ft | 272 kts | 261° |
| 2026-05-08 15:59 | 32.61736 | -110.87388 | 5991 ft | 270 kts | 270° |
| 2026-05-08 16:00 | 32.61742 | -110.89608 | 5996 ft | 270 kts | 274° |
| 2026-05-08 16:00 | 32.61792 | -110.91839 | 5992 ft | 270 kts | 274° |
| 2026-05-08 16:00 | 32.61849 | -110.94023 | 5990 ft | 269 kts | 274° |
| 2026-05-08 16:00 | 32.61909 | -110.96275 | 5990 ft | 269 kts | 274° |
| 2026-05-08 16:01 | 32.61968 | -110.98491 | 5990 ft | 269 kts | 274° |
| 2026-05-08 16:01 | 32.62037 | -111.00684 | 5986 ft | 270 kts | 274° |
| 2026-05-08 16:01 | 32.62104 | -111.02901 | 5988 ft | 269 kts | 274° |
| 2026-05-08 16:01 | 32.62165 | -111.05061 | 5988 ft | 254 kts | 274° |
| 2026-05-08 16:02 | 32.62222 | -111.07111 | 6024 ft | 247 kts | 274° |
| 2026-05-08 16:02 | 32.62277 | -111.09147 | 6000 ft | 247 kts | 274° |
| 2026-05-08 16:02 | 32.62338 | -111.11180 | 5934 ft | 245 kts | 274° |
| 2026-05-08 16:02 | 32.62390 | -111.13153 | 5806 ft | 233 kts | 274° |
| 2026-05-08 16:03 | 32.62442 | -111.15012 | 5658 ft | 219 kts | 274° |
| 2026-05-08 16:03 | 32.62486 | -111.16792 | 5542 ft | 214 kts | 274° |
| 2026-05-08 16:03 | 32.62523 | -111.18547 | 5425 ft | 212 kts | 274° |
| 2026-05-08 16:03 | 32.62561 | -111.20286 | 5260 ft | 210 kts | 274° |
| 2026-05-08 16:04 | 32.62602 | -111.21990 | 5064 ft | 202 kts | 274° |
| 2026-05-08 16:04 | 32.62643 | -111.23638 | 4869 ft | 198 kts | 274° |
| 2026-05-08 16:04 | 32.62678 | -111.25266 | 4647 ft | 197 kts | 274° |
| 2026-05-08 16:04 | 32.62715 | -111.26883 | 4446 ft | 195 kts | 273° |
| 2026-05-08 16:05 | 32.62772 | -111.28479 | 4437 ft | 186 kts | 274° |
| 2026-05-08 16:05 | 32.62832 | -111.29981 | 4435 ft | 179 kts | 274° |
| 2026-05-08 16:05 | 32.62879 | -111.31437 | 4356 ft | 171 kts | 274° |
| 2026-05-08 16:05 | 32.62930 | -111.32827 | 4170 ft | 167 kts | 274° |
| 2026-05-08 16:06 | 32.62718 | -111.34140 | 3862 ft | 161 kts | 244° |
| 2026-05-08 16:06 | 32.61999 | -111.35128 | 3530 ft | 156 kts | 226° |
| 2026-05-08 16:06 | 32.61243 | -111.36003 | 3216 ft | 148 kts | 225° |
| 2026-05-08 16:06 | 32.60525 | -111.36835 | 3022 ft | 140 kts | 224° |
| 2026-05-08 16:07 | 32.59866 | -111.37601 | 3016 ft | 128 kts | 223° |
| 2026-05-08 16:07 | 32.59225 | -111.38340 | 3019 ft | 128 kts | 223° |
| 2026-05-08 16:07 | 32.58592 | -111.39071 | 3015 ft | 127 kts | 223° |
| 2026-05-08 16:07 | 32.57942 | -111.39774 | 3011 ft | 126 kts | 212° |
| 2026-05-08 16:08 | 32.57134 | -111.39800 | 3023 ft | 130 kts | 152° |
| 2026-05-08 16:08 | 32.56491 | -111.39041 | 3011 ft | 130 kts | 136° |
| 2026-05-08 16:08 | 32.55861 | -111.38280 | 2908 ft | 131 kts | 136° |
| 2026-05-08 16:08 | 32.55224 | -111.37530 | 2746 ft | 127 kts | 135° |
| 2026-05-08 16:09 | 32.54598 | -111.36798 | 2569 ft | 126 kts | 135° |
| 2026-05-08 16:09 | 32.54183 | -111.36309 | 2477 ft | 124 kts | 134° |
| 2026-05-08 16:09 | 32.53357 | -111.35356 | 2277 ft | 124 kts | 135° |
| 2026-05-08 16:09 | 32.52752 | -111.34626 | 2144 ft | 124 kts | 134° |
| 2026-05-08 16:10 | 32.52146 | -111.33904 | 2026 ft | 123 kts | 134° |
| 2026-05-08 16:10 | 32.51538 | -111.33191 | 1886 ft | 120 kts | 134° |
| 2026-05-08 16:10 | 32.51072 | -111.32635 | 1887 ft | 57 kts | 135° |
| 2026-05-08 16:10 | 32.50918 | -111.32456 | 1891 ft | 27 kts | 135° |
| 2026-05-08 16:11 | 32.50747 | -111.32255 | 1897 ft | 35 kts | 135° |
| 2026-05-08 16:11 | 32.50580 | -111.32059 | 1891 ft | 32 kts | 135° |
| 2026-05-08 16:11 | 32.50427 | -111.31879 | 1897 ft | 27 kts | 135° |
| 2026-05-08 16:11 | 32.50381 | -111.31768 | 1899 ft | 15 kts | 58° |
| 2026-05-08 16:12 | 32.50467 | -111.31701 | 1889 ft | 16 kts | 347° |
| 2026-05-08 16:12 | 32.50567 | -111.31795 | 1892 ft | 20 kts | 315° |
| 2026-05-08 16:12 | 32.50661 | -111.31904 | 1895 ft | 19 kts | 315° |
| 2026-05-08 16:12 | 32.50724 | -111.31931 | 1891 ft | 10 kts | 30° |
| 2026-05-08 16:13 | 32.50778 | -111.31888 | 1892 ft | 6 kts | 40° |
| 2026-05-08 16:13 | 32.50790 | -111.31875 | 1891 ft | 0 kts | 43° |